sensor_id;sensor_type;location;lat;lon;timestamp;P1;durP1;ratioP1;P2;durP2;ratioP2
84172;SDS011;74302;40.122;18.310;2023-11-21T00:02:01;29.08;;;22.15;;
84172;SDS011;74302;40.122;18.310;2023-11-21T00:04:31;31.52;;;24.52;;
84172;SDS011;74302;40.122;18.310;2023-11-21T00:07:02;35.80;;;25.95;;
84172;SDS011;74302;40.122;18.310;2023-11-21T00:09:33;33.22;;;26.38;;
84172;SDS011;74302;40.122;18.310;2023-11-21T00:13:17;34.35;;;26.38;;
84172;SDS011;74302;40.122;18.310;2023-11-21T00:16:56;36.40;;;25.30;;
84172;SDS011;74302;40.122;18.310;2023-11-21T00:20:50;37.40;;;24.95;;
84172;SDS011;74302;40.122;18.310;2023-11-21T00:23:19;33.28;;;25.10;;
84172;SDS011;74302;40.122;18.310;2023-11-21T00:25:48;32.83;;;25.85;;
84172;SDS011;74302;40.122;18.310;2023-11-21T00:28:17;37.72;;;26.65;;
84172;SDS011;74302;40.122;18.310;2023-11-21T00:30:48;38.65;;;26.83;;
84172;SDS011;74302;40.122;18.310;2023-11-21T00:33:17;33.92;;;25.27;;
84172;SDS011;74302;40.122;18.310;2023-11-21T00:35:46;34.08;;;25.45;;
84172;SDS011;74302;40.122;18.310;2023-11-21T00:38:17;35.13;;;24.77;;
84172;SDS011;74302;40.122;18.310;2023-11-21T00:40:47;36.40;;;24.95;;
84172;SDS011;74302;40.122;18.310;2023-11-21T00:43:39;32.72;;;23.75;;
84172;SDS011;74302;40.122;18.310;2023-11-21T00:46:59;35.00;;;24.73;;
84172;SDS011;74302;40.122;18.310;2023-11-21T00:50:16;34.95;;;24.27;;
84172;SDS011;74302;40.122;18.310;2023-11-21T00:52:46;37.95;;;25.17;;
84172;SDS011;74302;40.122;18.310;2023-11-21T00:55:17;31.67;;;24.50;;
84172;SDS011;74302;40.122;18.310;2023-11-21T00:57:46;34.55;;;25.08;;
84172;SDS011;74302;40.122;18.310;2023-11-21T01:00:16;34.78;;;23.60;;
84172;SDS011;74302;40.122;18.310;2023-11-21T01:02:45;34.50;;;23.02;;
84172;SDS011;74302;40.122;18.310;2023-11-21T01:05:16;39.20;;;23.58;;
84172;SDS011;74302;40.122;18.310;2023-11-21T01:07:47;37.35;;;23.20;;
84172;SDS011;74302;40.122;18.310;2023-11-21T01:10:18;38.15;;;22.38;;
84172;SDS011;74302;40.122;18.310;2023-11-21T01:12:53;46.58;;;25.92;;
84172;SDS011;74302;40.122;18.310;2023-11-21T01:15:54;57.28;;;28.13;;
84172;SDS011;74302;40.122;18.310;2023-11-21T01:22:02;47.15;;;25.88;;
84172;SDS011;74302;40.122;18.310;2023-11-21T01:24:32;46.95;;;26.02;;
84172;SDS011;74302;40.122;18.310;2023-11-21T01:27:03;39.80;;;23.05;;
84172;SDS011;74302;40.122;18.310;2023-11-21T01:29:32;39.33;;;22.27;;
84172;SDS011;74302;40.122;18.310;2023-11-21T01:32:02;39.30;;;22.05;;
84172;SDS011;74302;40.122;18.310;2023-11-21T01:34:32;42.83;;;23.10;;
84172;SDS011;74302;40.122;18.310;2023-11-21T01:37:01;41.83;;;22.98;;
84172;SDS011;74302;40.122;18.310;2023-11-21T01:39:32;44.92;;;23.65;;
84172;SDS011;74302;40.122;18.310;2023-11-21T01:42:03;43.58;;;23.65;;
84172;SDS011;74302;40.122;18.310;2023-11-21T01:44:43;41.72;;;24.88;;
84172;SDS011;74302;40.122;18.310;2023-11-21T01:48:38;39.33;;;23.48;;
84172;SDS011;74302;40.122;18.310;2023-11-21T01:52:16;37.20;;;20.65;;
84172;SDS011;74302;40.122;18.310;2023-11-21T01:54:47;45.17;;;22.20;;
84172;SDS011;74302;40.122;18.310;2023-11-21T01:57:18;39.08;;;18.48;;
84172;SDS011;74302;40.122;18.310;2023-11-21T01:59:48;32.03;;;19.27;;
84172;SDS011;74302;40.122;18.310;2023-11-21T02:02:18;39.08;;;19.23;;
84172;SDS011;74302;40.122;18.310;2023-11-21T02:04:48;27.15;;;17.23;;
84172;SDS011;74302;40.122;18.310;2023-11-21T02:07:17;29.27;;;17.65;;
84172;SDS011;74302;40.122;18.310;2023-11-21T02:09:51;27.92;;;17.25;;
84172;SDS011;74302;40.122;18.310;2023-11-21T02:12:21;28.20;;;18.05;;
84172;SDS011;74302;40.122;18.310;2023-11-21T02:15:04;32.53;;;18.13;;
84172;SDS011;74302;40.122;18.310;2023-11-21T02:19:02;31.05;;;16.85;;
84172;SDS011;74302;40.122;18.310;2023-11-21T02:23:09;28.15;;;15.77;;
84172;SDS011;74302;40.122;18.310;2023-11-21T02:25:40;26.75;;;16.30;;
84172;SDS011;74302;40.122;18.310;2023-11-21T02:28:10;25.73;;;15.65;;
84172;SDS011;74302;40.122;18.310;2023-11-21T02:30:42;29.30;;;16.05;;
84172;SDS011;74302;40.122;18.310;2023-11-21T02:33:11;23.95;;;15.93;;
84172;SDS011;74302;40.122;18.310;2023-11-21T02:35:41;28.80;;;14.45;;
84172;SDS011;74302;40.122;18.310;2023-11-21T02:38:12;26.05;;;15.35;;
84172;SDS011;74302;40.122;18.310;2023-11-21T02:40:41;21.90;;;13.73;;
84172;SDS011;74302;40.122;18.310;2023-11-21T02:43:11;27.23;;;14.25;;
84172;SDS011;74302;40.122;18.310;2023-11-21T02:45:50;27.17;;;13.60;;
84172;SDS011;74302;40.122;18.310;2023-11-21T02:49:37;20.33;;;11.05;;
84172;SDS011;74302;40.122;18.310;2023-11-21T02:52:43;24.90;;;11.27;;
84172;SDS011;74302;40.122;18.310;2023-11-21T02:56:00;26.38;;;10.93;;
84172;SDS011;74302;40.122;18.310;2023-11-21T02:58:30;20.08;;;11.23;;
84172;SDS011;74302;40.122;18.310;2023-11-21T03:00:59;46.78;;;11.70;;
84172;SDS011;74302;40.122;18.310;2023-11-21T03:03:29;23.25;;;11.90;;
84172;SDS011;74302;40.122;18.310;2023-11-21T03:05:58;20.90;;;10.55;;
84172;SDS011;74302;40.122;18.310;2023-11-21T03:08:27;19.00;;;11.10;;
84172;SDS011;74302;40.122;18.310;2023-11-21T03:10:57;19.85;;;11.73;;
84172;SDS011;74302;40.122;18.310;2023-11-21T03:13:27;22.05;;;12.57;;
84172;SDS011;74302;40.122;18.310;2023-11-21T03:15:57;15.15;;;9.80;;
84172;SDS011;74302;40.122;18.310;2023-11-21T03:18:27;16.67;;;10.60;;
84172;SDS011;74302;40.122;18.310;2023-11-21T03:20:56;17.92;;;10.13;;
84172;SDS011;74302;40.122;18.310;2023-11-21T03:23:26;20.65;;;9.80;;
84172;SDS011;74302;40.122;18.310;2023-11-21T03:25:56;22.38;;;10.90;;
84172;SDS011;74302;40.122;18.310;2023-11-21T03:28:25;18.50;;;10.13;;
84172;SDS011;74302;40.122;18.310;2023-11-21T03:30:56;22.70;;;12.05;;
84172;SDS011;74302;40.122;18.310;2023-11-21T03:33:25;18.85;;;10.07;;
84172;SDS011;74302;40.122;18.310;2023-11-21T03:35:54;22.80;;;12.02;;
84172;SDS011;74302;40.122;18.310;2023-11-21T03:38:24;19.20;;;12.13;;
84172;SDS011;74302;40.122;18.310;2023-11-21T03:40:54;26.35;;;13.25;;
84172;SDS011;74302;40.122;18.310;2023-11-21T03:43:23;21.77;;;11.20;;
84172;SDS011;74302;40.122;18.310;2023-11-21T03:45:52;20.13;;;10.80;;
84172;SDS011;74302;40.122;18.310;2023-11-21T03:48:23;20.52;;;10.88;;
84172;SDS011;74302;40.122;18.310;2023-11-21T03:50:52;19.05;;;10.52;;
84172;SDS011;74302;40.122;18.310;2023-11-21T03:53:31;24.27;;;10.77;;
84172;SDS011;74302;40.122;18.310;2023-11-21T03:57:04;22.77;;;10.68;;
84172;SDS011;74302;40.122;18.310;2023-11-21T04:00:54;20.75;;;9.95;;
84172;SDS011;74302;40.122;18.310;2023-11-21T04:04:10;19.23;;;10.10;;
84172;SDS011;74302;40.122;18.310;2023-11-21T04:06:39;23.75;;;11.05;;
84172;SDS011;74302;40.122;18.310;2023-11-21T04:09:09;21.67;;;10.93;;
84172;SDS011;74302;40.122;18.310;2023-11-21T04:11:39;21.15;;;10.90;;
84172;SDS011;74302;40.122;18.310;2023-11-21T04:14:10;18.25;;;10.52;;
84172;SDS011;74302;40.122;18.310;2023-11-21T04:16:40;20.50;;;9.88;;
84172;SDS011;74302;40.122;18.310;2023-11-21T04:19:11;16.17;;;9.85;;
84172;SDS011;74302;40.122;18.310;2023-11-21T04:21:41;23.02;;;10.70;;
84172;SDS011;74302;40.122;18.310;2023-11-21T04:24:21;20.40;;;10.07;;
84172;SDS011;74302;40.122;18.310;2023-11-21T04:28:00;18.92;;;9.27;;
84172;SDS011;74302;40.122;18.310;2023-11-21T04:31:24;17.73;;;9.60;;
84172;SDS011;74302;40.122;18.310;2023-11-21T04:33:53;21.77;;;10.07;;
84172;SDS011;74302;40.122;18.310;2023-11-21T04:36:24;20.00;;;10.48;;
84172;SDS011;74302;40.122;18.310;2023-11-21T04:38:53;16.52;;;9.65;;
84172;SDS011;74302;40.122;18.310;2023-11-21T04:41:22;18.95;;;8.85;;
84172;SDS011;74302;40.122;18.310;2023-11-21T04:43:52;18.52;;;9.65;;
84172;SDS011;74302;40.122;18.310;2023-11-21T04:46:22;17.20;;;8.65;;
84172;SDS011;74302;40.122;18.310;2023-11-21T04:48:51;15.50;;;8.40;;
84172;SDS011;74302;40.122;18.310;2023-11-21T04:51:20;20.08;;;9.35;;
84172;SDS011;74302;40.122;18.310;2023-11-21T04:57:58;17.55;;;9.63;;
84172;SDS011;74302;40.122;18.310;2023-11-21T05:01:25;15.05;;;8.77;;
84172;SDS011;74302;40.122;18.310;2023-11-21T05:03:54;16.10;;;8.50;;
84172;SDS011;74302;40.122;18.310;2023-11-21T05:06:24;22.58;;;9.95;;
84172;SDS011;74302;40.122;18.310;2023-11-21T05:08:53;18.35;;;9.40;;
84172;SDS011;74302;40.122;18.310;2023-11-21T05:11:24;16.15;;;8.95;;
84172;SDS011;74302;40.122;18.310;2023-11-21T05:13:54;17.17;;;10.20;;
84172;SDS011;74302;40.122;18.310;2023-11-21T05:16:25;17.75;;;9.20;;
84172;SDS011;74302;40.122;18.310;2023-11-21T05:18:56;15.57;;;9.75;;
84172;SDS011;74302;40.122;18.310;2023-11-21T05:21:27;14.50;;;8.75;;
84172;SDS011;74302;40.122;18.310;2023-11-21T05:24:22;19.92;;;9.18;;
84172;SDS011;74302;40.122;18.310;2023-11-21T05:32:39;17.05;;;8.88;;
84172;SDS011;74302;40.122;18.310;2023-11-21T05:35:10;16.83;;;9.02;;
84172;SDS011;74302;40.122;18.310;2023-11-21T05:37:42;16.60;;;9.50;;
84172;SDS011;74302;40.122;18.310;2023-11-21T05:40:12;19.35;;;9.27;;
84172;SDS011;74302;40.122;18.310;2023-11-21T05:42:42;15.98;;;9.15;;
84172;SDS011;74302;40.122;18.310;2023-11-21T05:45:14;17.23;;;8.15;;
84172;SDS011;74302;40.122;18.310;2023-11-21T05:47:44;18.05;;;8.52;;
84172;SDS011;74302;40.122;18.310;2023-11-21T05:50:15;17.85;;;8.82;;
84172;SDS011;74302;40.122;18.310;2023-11-21T05:52:45;17.95;;;9.13;;
84172;SDS011;74302;40.122;18.310;2023-11-21T05:55:25;15.65;;;7.63;;
84172;SDS011;74302;40.122;18.310;2023-11-21T05:59:11;17.48;;;8.70;;
84172;SDS011;74302;40.122;18.310;2023-11-21T06:03:35;19.00;;;9.75;;
84172;SDS011;74302;40.122;18.310;2023-11-21T06:06:04;14.32;;;9.38;;
84172;SDS011;74302;40.122;18.310;2023-11-21T06:08:34;19.00;;;8.55;;
84172;SDS011;74302;40.122;18.310;2023-11-21T06:11:03;16.10;;;9.00;;
84172;SDS011;74302;40.122;18.310;2023-11-21T06:13:32;15.95;;;8.57;;
84172;SDS011;74302;40.122;18.310;2023-11-21T06:16:02;18.08;;;9.80;;
84172;SDS011;74302;40.122;18.310;2023-11-21T06:18:31;18.85;;;9.13;;
84172;SDS011;74302;40.122;18.310;2023-11-21T06:21:03;17.25;;;8.98;;
84172;SDS011;74302;40.122;18.310;2023-11-21T06:23:33;17.92;;;9.00;;
84172;SDS011;74302;40.122;18.310;2023-11-21T06:26:02;20.58;;;8.70;;
84172;SDS011;74302;40.122;18.310;2023-11-21T06:28:35;16.00;;;8.43;;
84172;SDS011;74302;40.122;18.310;2023-11-21T06:32:16;17.15;;;8.43;;
84172;SDS011;74302;40.122;18.310;2023-11-21T06:34:57;19.77;;;9.35;;
84172;SDS011;74302;40.122;18.310;2023-11-21T06:38:11;16.65;;;9.07;;
84172;SDS011;74302;40.122;18.310;2023-11-21T06:40:40;20.92;;;9.70;;
84172;SDS011;74302;40.122;18.310;2023-11-21T06:43:09;18.88;;;8.07;;
84172;SDS011;74302;40.122;18.310;2023-11-21T06:45:38;14.85;;;7.32;;
84172;SDS011;74302;40.122;18.310;2023-11-21T06:48:08;14.02;;;6.70;;
84172;SDS011;74302;40.122;18.310;2023-11-21T06:50:37;15.10;;;6.90;;
84172;SDS011;74302;40.122;18.310;2023-11-21T06:53:06;13.40;;;6.80;;
84172;SDS011;74302;40.122;18.310;2023-11-21T06:55:38;13.20;;;6.53;;
84172;SDS011;74302;40.122;18.310;2023-11-21T06:58:07;15.55;;;6.93;;
84172;SDS011;74302;40.122;18.310;2023-11-21T07:00:36;13.02;;;5.63;;
84172;SDS011;74302;40.122;18.310;2023-11-21T07:03:06;12.98;;;5.40;;
84172;SDS011;74302;40.122;18.310;2023-11-21T07:05:35;16.27;;;5.50;;
84172;SDS011;74302;40.122;18.310;2023-11-21T07:08:04;11.15;;;4.57;;
84172;SDS011;74302;40.122;18.310;2023-11-21T07:10:35;10.63;;;4.35;;
84172;SDS011;74302;40.122;18.310;2023-11-21T07:13:06;12.60;;;5.22;;
84172;SDS011;74302;40.122;18.310;2023-11-21T07:15:40;14.52;;;4.80;;
84172;SDS011;74302;40.122;18.310;2023-11-21T07:18:09;12.43;;;4.93;;
84172;SDS011;74302;40.122;18.310;2023-11-21T07:20:38;13.85;;;6.93;;
84172;SDS011;74302;40.122;18.310;2023-11-21T07:23:08;11.90;;;6.00;;
84172;SDS011;74302;40.122;18.310;2023-11-21T07:25:37;17.60;;;5.57;;
84172;SDS011;74302;40.122;18.310;2023-11-21T07:28:10;15.27;;;6.32;;
84172;SDS011;74302;40.122;18.310;2023-11-21T07:30:39;16.95;;;6.40;;
84172;SDS011;74302;40.122;18.310;2023-11-21T07:33:10;16.42;;;7.07;;
84172;SDS011;74302;40.122;18.310;2023-11-21T07:35:39;11.82;;;7.30;;
84172;SDS011;74302;40.122;18.310;2023-11-21T07:38:09;16.63;;;7.22;;
84172;SDS011;74302;40.122;18.310;2023-11-21T07:40:38;13.65;;;7.45;;
84172;SDS011;74302;40.122;18.310;2023-11-21T07:43:07;18.73;;;7.90;;
84172;SDS011;74302;40.122;18.310;2023-11-21T07:45:39;19.45;;;8.68;;
84172;SDS011;74302;40.122;18.310;2023-11-21T07:48:09;15.48;;;7.50;;
84172;SDS011;74302;40.122;18.310;2023-11-21T07:50:39;18.25;;;7.00;;
84172;SDS011;74302;40.122;18.310;2023-11-21T07:53:08;17.70;;;6.88;;
84172;SDS011;74302;40.122;18.310;2023-11-21T07:55:37;15.82;;;6.43;;
84172;SDS011;74302;40.122;18.310;2023-11-21T07:58:06;13.23;;;6.68;;
84172;SDS011;74302;40.122;18.310;2023-11-21T08:00:35;15.10;;;6.57;;
84172;SDS011;74302;40.122;18.310;2023-11-21T08:03:08;14.73;;;6.65;;
84172;SDS011;74302;40.122;18.310;2023-11-21T08:05:38;18.27;;;6.53;;
84172;SDS011;74302;40.122;18.310;2023-11-21T08:08:07;13.55;;;6.60;;
84172;SDS011;74302;40.122;18.310;2023-11-21T08:10:37;14.73;;;5.97;;
84172;SDS011;74302;40.122;18.310;2023-11-21T08:13:06;14.80;;;6.38;;
84172;SDS011;74302;40.122;18.310;2023-11-21T08:15:36;12.77;;;6.05;;
84172;SDS011;74302;40.122;18.310;2023-11-21T08:18:05;15.30;;;6.88;;
84172;SDS011;74302;40.122;18.310;2023-11-21T08:20:36;17.00;;;6.82;;
84172;SDS011;74302;40.122;18.310;2023-11-21T08:23:07;14.65;;;6.30;;
84172;SDS011;74302;40.122;18.310;2023-11-21T08:25:36;15.20;;;5.38;;
84172;SDS011;74302;40.122;18.310;2023-11-21T08:28:06;12.95;;;4.85;;
84172;SDS011;74302;40.122;18.310;2023-11-21T08:30:35;14.38;;;5.53;;
84172;SDS011;74302;40.122;18.310;2023-11-21T08:33:04;13.95;;;4.97;;
84172;SDS011;74302;40.122;18.310;2023-11-21T08:35:35;13.13;;;4.72;;
84172;SDS011;74302;40.122;18.310;2023-11-21T08:38:05;11.60;;;4.63;;
84172;SDS011;74302;40.122;18.310;2023-11-21T08:40:34;10.57;;;4.32;;
84172;SDS011;74302;40.122;18.310;2023-11-21T08:43:04;11.13;;;4.15;;
84172;SDS011;74302;40.122;18.310;2023-11-21T08:45:34;11.95;;;3.90;;
84172;SDS011;74302;40.122;18.310;2023-11-21T08:48:03;14.25;;;4.57;;
84172;SDS011;74302;40.122;18.310;2023-11-21T08:50:37;11.75;;;4.28;;
84172;SDS011;74302;40.122;18.310;2023-11-21T08:53:06;10.88;;;4.03;;
84172;SDS011;74302;40.122;18.310;2023-11-21T08:55:38;11.90;;;4.80;;
84172;SDS011;74302;40.122;18.310;2023-11-21T08:58:07;11.35;;;4.63;;
84172;SDS011;74302;40.122;18.310;2023-11-21T09:00:37;12.02;;;5.07;;
84172;SDS011;74302;40.122;18.310;2023-11-21T09:03:08;14.05;;;4.68;;
84172;SDS011;74302;40.122;18.310;2023-11-21T09:05:39;10.18;;;4.10;;
84172;SDS011;74302;40.122;18.310;2023-11-21T09:08:08;16.27;;;4.65;;
84172;SDS011;74302;40.122;18.310;2023-11-21T09:10:38;13.00;;;4.20;;
84172;SDS011;74302;40.122;18.310;2023-11-21T09:13:07;10.23;;;4.05;;
84172;SDS011;74302;40.122;18.310;2023-11-21T09:15:37;16.40;;;4.60;;
84172;SDS011;74302;40.122;18.310;2023-11-21T09:18:07;9.68;;;3.55;;
84172;SDS011;74302;40.122;18.310;2023-11-21T09:20:39;12.68;;;3.90;;
84172;SDS011;74302;40.122;18.310;2023-11-21T09:23:08;11.60;;;3.63;;
84172;SDS011;74302;40.122;18.310;2023-11-21T09:25:37;10.98;;;3.63;;
84172;SDS011;74302;40.122;18.310;2023-11-21T09:28:06;7.82;;;2.88;;
84172;SDS011;74302;40.122;18.310;2023-11-21T09:30:36;13.18;;;3.78;;
84172;SDS011;74302;40.122;18.310;2023-11-21T09:33:05;11.20;;;3.85;;
84172;SDS011;74302;40.122;18.310;2023-11-21T09:35:39;10.40;;;3.30;;
84172;SDS011;74302;40.122;18.310;2023-11-21T09:38:09;11.10;;;3.13;;
84172;SDS011;74302;40.122;18.310;2023-11-21T09:40:39;7.05;;;2.90;;
84172;SDS011;74302;40.122;18.310;2023-11-21T09:43:09;6.90;;;2.80;;
84172;SDS011;74302;40.122;18.310;2023-11-21T09:45:45;10.65;;;3.72;;
84172;SDS011;74302;40.122;18.310;2023-11-21T09:48:17;12.60;;;3.70;;
84172;SDS011;74302;40.122;18.310;2023-11-21T09:50:50;10.35;;;2.85;;
84172;SDS011;74302;40.122;18.310;2023-11-21T09:53:21;8.32;;;2.95;;
84172;SDS011;74302;40.122;18.310;2023-11-21T09:55:52;9.95;;;2.80;;
84172;SDS011;74302;40.122;18.310;2023-11-21T09:58:22;8.90;;;2.47;;
84172;SDS011;74302;40.122;18.310;2023-11-21T10:00:52;10.88;;;3.47;;
84172;SDS011;74302;40.122;18.310;2023-11-21T10:03:23;13.05;;;5.30;;
84172;SDS011;74302;40.122;18.310;2023-11-21T10:05:56;12.65;;;3.95;;
84172;SDS011;74302;40.122;18.310;2023-11-21T10:08:26;11.07;;;3.97;;
84172;SDS011;74302;40.122;18.310;2023-11-21T10:11:02;18.40;;;6.97;;
84172;SDS011;74302;40.122;18.310;2023-11-21T10:13:34;14.30;;;5.68;;
84172;SDS011;74302;40.122;18.310;2023-11-21T10:16:05;14.60;;;5.80;;
84172;SDS011;74302;40.122;18.310;2023-11-21T10:18:35;15.60;;;4.40;;
84172;SDS011;74302;40.122;18.310;2023-11-21T10:21:08;19.23;;;4.93;;
84172;SDS011;74302;40.122;18.310;2023-11-21T10:23:38;16.98;;;7.05;;
84172;SDS011;74302;40.122;18.310;2023-11-21T10:26:08;13.93;;;6.22;;
84172;SDS011;74302;40.122;18.310;2023-11-21T10:28:54;19.17;;;5.55;;
84172;SDS011;74302;40.122;18.310;2023-11-21T10:31:25;16.23;;;5.50;;
84172;SDS011;74302;40.122;18.310;2023-11-21T10:33:59;18.70;;;5.50;;
84172;SDS011;74302;40.122;18.310;2023-11-21T10:36:43;16.77;;;7.25;;
84172;SDS011;74302;40.122;18.310;2023-11-21T10:39:16;18.15;;;5.55;;
84172;SDS011;74302;40.122;18.310;2023-11-21T10:41:46;22.98;;;8.02;;
84172;SDS011;74302;40.122;18.310;2023-11-21T10:44:16;13.73;;;5.05;;
84172;SDS011;74302;40.122;18.310;2023-11-21T10:46:48;18.48;;;5.03;;
84172;SDS011;74302;40.122;18.310;2023-11-21T10:49:19;15.38;;;4.68;;
84172;SDS011;74302;40.122;18.310;2023-11-21T10:51:50;18.33;;;5.97;;
84172;SDS011;74302;40.122;18.310;2023-11-21T10:54:20;16.90;;;5.15;;
84172;SDS011;74302;40.122;18.310;2023-11-21T10:56:53;17.30;;;5.45;;
84172;SDS011;74302;40.122;18.310;2023-11-21T10:59:27;19.05;;;5.75;;
84172;SDS011;74302;40.122;18.310;2023-11-21T11:01:58;16.92;;;6.30;;
84172;SDS011;74302;40.122;18.310;2023-11-21T11:04:30;19.13;;;7.25;;
84172;SDS011;74302;40.122;18.310;2023-11-21T11:07:01;15.45;;;5.38;;
84172;SDS011;74302;40.122;18.310;2023-11-21T11:09:32;15.25;;;4.70;;
84172;SDS011;74302;40.122;18.310;2023-11-21T11:12:02;14.00;;;4.70;;
84172;SDS011;74302;40.122;18.310;2023-11-21T11:14:33;16.15;;;5.65;;
84172;SDS011;74302;40.122;18.310;2023-11-21T11:17:03;15.55;;;5.43;;
84172;SDS011;74302;40.122;18.310;2023-11-21T11:19:35;14.55;;;3.88;;
84172;SDS011;74302;40.122;18.310;2023-11-21T11:22:08;16.70;;;5.32;;
84172;SDS011;74302;40.122;18.310;2023-11-21T11:24:49;15.80;;;5.22;;
84172;SDS011;74302;40.122;18.310;2023-11-21T11:27:44;14.70;;;4.40;;
84172;SDS011;74302;40.122;18.310;2023-11-21T11:30:37;15.48;;;4.40;;
84172;SDS011;74302;40.122;18.310;2023-11-21T11:33:14;14.55;;;5.13;;
84172;SDS011;74302;40.122;18.310;2023-11-21T11:35:56;13.98;;;4.97;;
84172;SDS011;74302;40.122;18.310;2023-11-21T11:38:33;17.17;;;4.60;;
84172;SDS011;74302;40.122;18.310;2023-11-21T11:41:03;13.23;;;4.03;;
84172;SDS011;74302;40.122;18.310;2023-11-21T11:43:34;13.52;;;4.38;;
84172;SDS011;74302;40.122;18.310;2023-11-21T11:46:11;12.07;;;3.53;;
84172;SDS011;74302;40.122;18.310;2023-11-21T11:48:42;12.10;;;4.20;;
84172;SDS011;74302;40.122;18.310;2023-11-21T11:51:12;13.50;;;3.72;;
84172;SDS011;74302;40.122;18.310;2023-11-21T11:53:46;14.17;;;4.43;;
84172;SDS011;74302;40.122;18.310;2023-11-21T11:56:24;15.68;;;4.28;;
84172;SDS011;74302;40.122;18.310;2023-11-21T11:58:55;16.60;;;4.10;;
84172;SDS011;74302;40.122;18.310;2023-11-21T12:01:26;19.27;;;4.53;;
84172;SDS011;74302;40.122;18.310;2023-11-21T12:07:01;18.65;;;5.40;;
84172;SDS011;74302;40.122;18.310;2023-11-21T12:09:32;14.23;;;4.32;;
84172;SDS011;74302;40.122;18.310;2023-11-21T12:12:02;17.42;;;4.57;;
84172;SDS011;74302;40.122;18.310;2023-11-21T12:14:33;32.58;;;12.88;;
84172;SDS011;74302;40.122;18.310;2023-11-21T12:17:04;21.38;;;9.40;;
84172;SDS011;74302;40.122;18.310;2023-11-21T12:19:33;36.08;;;11.73;;
84172;SDS011;74302;40.122;18.310;2023-11-21T12:22:04;15.50;;;5.45;;
84172;SDS011;74302;40.122;18.310;2023-11-21T12:24:35;20.00;;;5.95;;
84172;SDS011;74302;40.122;18.310;2023-11-21T12:27:05;14.77;;;4.32;;
84172;SDS011;74302;40.122;18.310;2023-11-21T12:29:35;17.63;;;5.88;;
84172;SDS011;74302;40.122;18.310;2023-11-21T12:32:05;16.45;;;5.40;;
84172;SDS011;74302;40.122;18.310;2023-11-21T12:34:34;16.45;;;4.93;;
84172;SDS011;74302;40.122;18.310;2023-11-21T12:37:05;20.40;;;5.53;;
84172;SDS011;74302;40.122;18.310;2023-11-21T12:39:36;19.98;;;7.15;;
84172;SDS011;74302;40.122;18.310;2023-11-21T12:42:05;18.27;;;5.45;;
84172;SDS011;74302;40.122;18.310;2023-11-21T12:44:35;14.65;;;3.78;;
84172;SDS011;74302;40.122;18.310;2023-11-21T12:47:04;13.52;;;4.80;;
84172;SDS011;74302;40.122;18.310;2023-11-21T12:49:34;15.93;;;4.55;;
84172;SDS011;74302;40.122;18.310;2023-11-21T12:52:04;13.70;;;4.18;;
84172;SDS011;74302;40.122;18.310;2023-11-21T12:54:34;19.77;;;5.43;;
84172;SDS011;74302;40.122;18.310;2023-11-21T12:57:05;14.50;;;4.53;;
84172;SDS011;74302;40.122;18.310;2023-11-21T12:59:35;19.70;;;4.97;;
84172;SDS011;74302;40.122;18.310;2023-11-21T13:02:09;17.00;;;4.28;;
84172;SDS011;74302;40.122;18.310;2023-11-21T13:04:41;15.73;;;4.93;;
84172;SDS011;74302;40.122;18.310;2023-11-21T13:07:11;14.88;;;4.05;;
84172;SDS011;74302;40.122;18.310;2023-11-21T13:09:41;18.08;;;4.97;;
84172;SDS011;74302;40.122;18.310;2023-11-21T13:12:12;12.07;;;4.13;;
84172;SDS011;74302;40.122;18.310;2023-11-21T13:14:45;16.35;;;4.70;;
84172;SDS011;74302;40.122;18.310;2023-11-21T13:17:15;16.33;;;4.50;;
84172;SDS011;74302;40.122;18.310;2023-11-21T13:19:44;16.80;;;5.03;;
84172;SDS011;74302;40.122;18.310;2023-11-21T13:22:13;23.00;;;8.32;;
84172;SDS011;74302;40.122;18.310;2023-11-21T13:24:42;16.70;;;5.03;;
84172;SDS011;74302;40.122;18.310;2023-11-21T13:27:13;20.02;;;8.13;;
84172;SDS011;74302;40.122;18.310;2023-11-21T13:29:42;23.85;;;8.38;;
84172;SDS011;74302;40.122;18.310;2023-11-21T13:32:11;19.50;;;5.95;;
84172;SDS011;74302;40.122;18.310;2023-11-21T13:34:42;18.55;;;6.15;;
84172;SDS011;74302;40.122;18.310;2023-11-21T13:37:14;21.52;;;7.43;;
84172;SDS011;74302;40.122;18.310;2023-11-21T13:39:43;28.33;;;8.50;;
84172;SDS011;74302;40.122;18.310;2023-11-21T13:42:19;18.65;;;6.28;;
84172;SDS011;74302;40.122;18.310;2023-11-21T13:44:56;23.70;;;6.63;;
84172;SDS011;74302;40.122;18.310;2023-11-21T13:47:25;22.92;;;5.43;;
84172;SDS011;74302;40.122;18.310;2023-11-21T13:49:56;15.90;;;4.85;;
84172;SDS011;74302;40.122;18.310;2023-11-21T13:52:27;18.17;;;5.32;;
84172;SDS011;74302;40.122;18.310;2023-11-21T13:55:00;19.73;;;6.28;;
84172;SDS011;74302;40.122;18.310;2023-11-21T13:57:35;25.15;;;6.07;;
84172;SDS011;74302;40.122;18.310;2023-11-21T14:00:05;15.90;;;5.30;;
84172;SDS011;74302;40.122;18.310;2023-11-21T14:02:38;14.25;;;4.97;;
84172;SDS011;74302;40.122;18.310;2023-11-21T14:05:11;15.40;;;5.63;;
84172;SDS011;74302;40.122;18.310;2023-11-21T14:07:41;17.30;;;4.78;;
84172;SDS011;74302;40.122;18.310;2023-11-21T14:10:15;16.33;;;5.35;;
84172;SDS011;74302;40.122;18.310;2023-11-21T14:12:50;15.07;;;5.15;;
84172;SDS011;74302;40.122;18.310;2023-11-21T14:15:19;12.18;;;3.60;;
84172;SDS011;74302;40.122;18.310;2023-11-21T14:17:49;12.88;;;3.70;;
84172;SDS011;74302;40.122;18.310;2023-11-21T14:20:19;10.02;;;3.50;;
84172;SDS011;74302;40.122;18.310;2023-11-21T14:22:48;12.50;;;4.18;;
84172;SDS011;74302;40.122;18.310;2023-11-21T14:25:18;13.18;;;5.00;;
84172;SDS011;74302;40.122;18.310;2023-11-21T14:27:48;15.32;;;6.03;;
84172;SDS011;74302;40.122;18.310;2023-11-21T14:30:19;14.73;;;4.70;;
84172;SDS011;74302;40.122;18.310;2023-11-21T14:32:49;12.18;;;3.75;;
84172;SDS011;74302;40.122;18.310;2023-11-21T14:35:19;16.23;;;4.18;;
84172;SDS011;74302;40.122;18.310;2023-11-21T14:37:48;13.10;;;4.50;;
84172;SDS011;74302;40.122;18.310;2023-11-21T14:40:17;12.10;;;4.30;;
84172;SDS011;74302;40.122;18.310;2023-11-21T14:42:53;12.45;;;3.80;;
84172;SDS011;74302;40.122;18.310;2023-11-21T14:45:24;11.50;;;3.97;;
84172;SDS011;74302;40.122;18.310;2023-11-21T14:47:54;11.13;;;3.70;;
84172;SDS011;74302;40.122;18.310;2023-11-21T14:50:33;8.10;;;3.38;;
84172;SDS011;74302;40.122;18.310;2023-11-21T14:53:15;10.18;;;3.97;;
84172;SDS011;74302;40.122;18.310;2023-11-21T14:58:27;8.35;;;3.58;;
84172;SDS011;74302;40.122;18.310;2023-11-21T15:00:56;12.82;;;4.60;;
84172;SDS011;74302;40.122;18.310;2023-11-21T15:03:26;15.70;;;5.05;;
84172;SDS011;74302;40.122;18.310;2023-11-21T15:06:10;9.88;;;4.50;;
84172;SDS011;74302;40.122;18.310;2023-11-21T15:08:48;11.25;;;4.88;;
84172;SDS011;74302;40.122;18.310;2023-11-21T15:11:26;11.20;;;4.60;;
84172;SDS011;74302;40.122;18.310;2023-11-21T15:13:59;11.55;;;4.47;;
84172;SDS011;74302;40.122;18.310;2023-11-21T15:16:28;18.73;;;4.97;;
84172;SDS011;74302;40.122;18.310;2023-11-21T15:18:57;12.15;;;4.50;;
84172;SDS011;74302;40.122;18.310;2023-11-21T15:21:27;13.93;;;4.18;;
84172;SDS011;74302;40.122;18.310;2023-11-21T15:23:56;10.10;;;4.32;;
84172;SDS011;74302;40.122;18.310;2023-11-21T15:26:26;11.70;;;4.55;;